sensor_id;sensor_type;location;lat;lon;timestamp;pressure;altitude;pressure_sealevel;temperature;humidity
66880;BME280;53789;51.392;10.234;2023-04-21T00:00:15;98198.47;;;7.35;83.05
66880;BME280;53789;51.392;10.234;2023-04-21T00:00:35;98203.16;;;7.34;82.86
66880;BME280;53789;51.392;10.234;2023-04-21T00:00:56;98199.59;;;7.34;82.09
66880;BME280;53789;51.392;10.234;2023-04-21T00:01:16;98203.94;;;7.35;82.15
66880;BME280;53789;51.392;10.234;2023-04-21T00:01:37;98197.38;;;7.36;82.11
66880;BME280;53789;51.392;10.234;2023-04-21T00:01:57;98201.22;;;7.35;82.70
66880;BME280;53789;51.392;10.234;2023-04-21T00:02:18;98199.31;;;7.35;82.13
66880;BME280;53789;51.392;10.234;2023-04-21T00:02:38;98196.59;;;7.35;82.88
66880;BME280;53789;51.392;10.234;2023-04-21T00:02:58;98189.97;;;7.36;83.36
66880;BME280;53789;51.392;10.234;2023-04-21T00:03:19;98195.16;;;7.38;82.30
66880;BME280;53789;51.392;10.234;2023-04-21T00:03:40;98198.75;;;7.38;82.75
66880;BME280;53789;51.392;10.234;2023-04-21T00:04:00;98194.06;;;7.39;82.19
66880;BME280;53789;51.392;10.234;2023-04-21T00:04:20;98195.72;;;7.40;82.88
66880;BME280;53789;51.392;10.234;2023-04-21T00:04:41;98194.06;;;7.39;81.72
66880;BME280;53789;51.392;10.234;2023-04-21T00:05:01;98191.34;;;7.39;82.60
66880;BME280;53789;51.392;10.234;2023-04-21T00:05:21;98191.34;;;7.39;82.98
66880;BME280;53789;51.392;10.234;2023-04-21T00:05:42;98191.06;;;7.40;82.16
66880;BME280;53789;51.392;10.234;2023-04-21T00:06:03;98194.91;;;7.39;83.38
66880;BME280;53789;51.392;10.234;2023-04-21T00:06:24;98187.50;;;7.40;83.52
66880;BME280;53789;51.392;10.234;2023-04-21T00:06:44;98192.97;;;7.40;83.48
66880;BME280;53789;51.392;10.234;2023-04-21T00:07:05;98192.69;;;7.41;82.67
66880;BME280;53789;51.392;10.234;2023-04-21T00:07:25;98190.75;;;7.42;83.41
66880;BME280;53789;51.392;10.234;2023-04-21T00:07:45;98189.16;;;7.41;82.50
66880;BME280;53789;51.392;10.234;2023-04-21T00:08:05;98191.88;;;7.41;83.08
66880;BME280;53789;51.392;10.234;2023-04-21T00:08:26;98189.97;;;7.41;82.23
66880;BME280;53789;51.392;10.234;2023-04-21T00:08:46;98187.22;;;7.41;82.79
66880;BME280;53789;51.392;10.234;2023-04-21T00:09:07;98191.59;;;7.42;82.01
66880;BME280;53789;51.392;10.234;2023-04-21T00:09:28;98192.69;;;7.41;82.19
66880;BME280;53789;51.392;10.234;2023-04-21T00:09:48;98188.03;;;7.42;82.79
66880;BME280;53789;51.392;10.234;2023-04-21T00:10:10;98190.47;;;7.43;82.68
66880;BME280;53789;51.392;10.234;2023-04-21T00:10:30;98193.22;;;7.43;82.20
66880;BME280;53789;51.392;10.234;2023-04-21T00:10:50;98192.41;;;7.43;82.12
66880;BME280;53789;51.392;10.234;2023-04-21T00:11:11;98183.41;;;7.42;82.82
66880;BME280;53789;51.392;10.234;2023-04-21T00:11:31;98195.94;;;7.43;82.47
66880;BME280;53789;51.392;10.234;2023-04-21T00:11:51;98187.75;;;7.43;82.96
66880;BME280;53789;51.392;10.234;2023-04-21T00:12:12;98185.88;;;7.44;82.71
66880;BME280;53789;51.392;10.234;2023-04-21T00:12:32;98179.28;;;7.45;82.23
66880;BME280;53789;51.392;10.234;2023-04-21T00:12:52;98182.00;;;7.45;82.03
66880;BME280;53789;51.392;10.234;2023-04-21T00:13:13;98187.47;;;7.45;81.93
66880;BME280;53789;51.392;10.234;2023-04-21T00:13:34;98185.59;;;7.46;82.42
66880;BME280;53789;51.392;10.234;2023-04-21T00:13:55;98178.47;;;7.44;82.99
66880;BME280;53789;51.392;10.234;2023-04-21T00:14:15;98189.13;;;7.46;82.72
66880;BME280;53789;51.392;10.234;2023-04-21T00:14:36;98184.47;;;7.47;82.34
66880;BME280;53789;51.392;10.234;2023-04-21T00:14:56;98192.38;;;7.48;82.15
66880;BME280;53789;51.392;10.234;2023-04-21T00:15:17;98180.63;;;7.48;82.76
66880;BME280;53789;51.392;10.234;2023-04-21T00:15:37;98187.75;;;7.49;81.65
66880;BME280;53789;51.392;10.234;2023-04-21T00:15:57;98178.69;;;7.48;82.07
66880;BME280;53789;51.392;10.234;2023-04-21T00:16:18;98184.72;;;7.50;81.92
66880;BME280;53789;51.392;10.234;2023-04-21T00:16:38;98180.34;;;7.49;82.14
66880;BME280;53789;51.392;10.234;2023-04-21T00:16:58;98183.06;;;7.49;82.77
66880;BME280;53789;51.392;10.234;2023-04-21T00:17:18;98180.34;;;7.49;82.86
66880;BME280;53789;51.392;10.234;2023-04-21T00:17:39;98185.53;;;7.51;83.03
66880;BME280;53789;51.392;10.234;2023-04-21T00:17:59;98187.44;;;7.50;83.24
66880;BME280;53789;51.392;10.234;2023-04-21T00:18:19;98187.44;;;7.50;82.31
66880;BME280;53789;51.392;10.234;2023-04-21T00:18:40;98188.25;;;7.51;82.55
66880;BME280;53789;51.392;10.234;2023-04-21T00:19:00;98185.53;;;7.51;82.20
66880;BME280;53789;51.392;10.234;2023-04-21T00:19:21;98183.63;;;7.51;81.84
66880;BME280;53789;51.392;10.234;2023-04-21T00:19:41;98180.88;;;7.51;81.64
66880;BME280;53789;51.392;10.234;2023-04-21T00:20:01;98190.72;;;7.52;82.02
66880;BME280;53789;51.392;10.234;2023-04-21T00:20:22;98185.22;;;7.52;82.02
66880;BME280;53789;51.392;10.234;2023-04-21T00:20:42;98182.50;;;7.52;82.10
66880;BME280;53789;51.392;10.234;2023-04-21T00:21:03;98186.88;;;7.53;82.01
66880;BME280;53789;51.392;10.234;2023-04-21T00:21:23;98184.13;;;7.53;81.60
66880;BME280;53789;51.392;10.234;2023-04-21T00:21:44;98175.94;;;7.53;82.24
66880;BME280;53789;51.392;10.234;2023-04-21T00:22:05;98180.31;;;7.54;82.69
66880;BME280;53789;51.392;10.234;2023-04-21T00:22:25;98187.69;;;7.54;82.36
66880;BME280;53789;51.392;10.234;2023-04-21T00:22:45;98184.94;;;7.54;81.71
66880;BME280;53789;51.392;10.234;2023-04-21T00:23:06;98186.88;;;7.53;81.85
66880;BME280;53789;51.392;10.234;2023-04-21T00:23:26;98187.69;;;7.54;82.34
66880;BME280;53789;51.392;10.234;2023-04-21T00:23:46;98183.03;;;7.54;81.97
66880;BME280;53789;51.392;10.234;2023-04-21T00:24:07;98182.22;;;7.54;82.62
66880;BME280;53789;51.392;10.234;2023-04-21T00:24:27;98183.03;;;7.54;82.21
66880;BME280;53789;51.392;10.234;2023-04-21T00:24:48;98180.31;;;7.54;82.24
66880;BME280;53789;51.392;10.234;2023-04-21T00:25:08;98177.56;;;7.54;82.08
66880;BME280;53789;51.392;10.234;2023-04-21T00:25:29;98181.09;;;7.55;82.06
66880;BME280;53789;51.392;10.234;2023-04-21T00:25:49;98181.91;;;7.55;81.23
66880;BME280;53789;51.392;10.234;2023-04-21T00:26:09;98182.75;;;7.56;81.03
66880;BME280;53789;51.392;10.234;2023-04-21T00:26:30;98181.91;;;7.55;81.09
66880;BME280;53789;51.392;10.234;2023-04-21T00:26:50;98184.66;;;7.55;82.05
66880;BME280;53789;51.392;10.234;2023-04-21T00:27:10;98187.38;;;7.55;81.75
66880;BME280;53789;51.392;10.234;2023-04-21T00:27:31;98180.81;;;7.56;81.67
66880;BME280;53789;51.392;10.234;2023-04-21T00:27:51;98186.28;;;7.56;81.82
66880;BME280;53789;51.392;10.234;2023-04-21T00:28:11;98175.34;;;7.56;81.14
66880;BME280;53789;51.392;10.234;2023-04-21T00:28:31;98178.09;;;7.56;81.33
66880;BME280;53789;51.392;10.234;2023-04-21T00:28:52;98178.09;;;7.56;81.29
66880;BME280;53789;51.392;10.234;2023-04-21T00:29:12;98176.16;;;7.57;81.87
66880;BME280;53789;51.392;10.234;2023-04-21T00:29:32;98179.72;;;7.57;81.83
66880;BME280;53789;51.392;10.234;2023-04-21T00:29:53;98178.09;;;7.56;81.81
66880;BME280;53789;51.392;10.234;2023-04-21T00:30:13;98178.88;;;7.57;81.56
66880;BME280;53789;51.392;10.234;2023-04-21T00:30:33;98185.50;;;7.56;81.33
66880;BME280;53789;51.392;10.234;2023-04-21T00:30:54;98173.69;;;7.55;81.45
66880;BME280;53789;51.392;10.234;2023-04-21T00:31:14;98169.88;;;7.56;81.05
66880;BME280;53789;51.392;10.234;2023-04-21T00:31:34;98169.06;;;7.56;81.24
66880;BME280;53789;51.392;10.234;2023-04-21T00:31:55;98170.97;;;7.55;81.95
66880;BME280;53789;51.392;10.234;2023-04-21T00:32:15;98170.97;;;7.55;81.96
66880;BME280;53789;51.392;10.234;2023-04-21T00:32:35;98177.28;;;7.56;82.14
66880;BME280;53789;51.392;10.234;2023-04-21T00:32:55;98169.06;;;7.56;82.16
66880;BME280;53789;51.392;10.234;2023-04-21T00:33:16;98168.22;;;7.55;81.61
66880;BME280;53789;51.392;10.234;2023-04-21T00:33:36;98175.63;;;7.55;81.49
66880;BME280;53789;51.392;10.234;2023-04-21T00:33:56;98162.25;;;7.53;81.50
66880;BME280;53789;51.392;10.234;2023-04-21T00:34:17;98163.06;;;7.54;82.37
66880;BME280;53789;51.392;10.234;2023-04-21T00:34:37;98163.06;;;7.54;81.98
66880;BME280;53789;51.392;10.234;2023-04-21T00:34:57;98169.66;;;7.53;80.96
66880;BME280;53789;51.392;10.234;2023-04-21T00:35:18;98164.97;;;7.53;81.06
66880;BME280;53789;51.392;10.234;2023-04-21T00:35:38;98165.28;;;7.52;81.50
66880;BME280;53789;51.392;10.234;2023-04-21T00:35:58;98169.94;;;7.51;81.83
66880;BME280;53789;51.392;10.234;2023-04-21T00:36:18;98163.34;;;7.52;81.55
66880;BME280;53789;51.392;10.234;2023-04-21T00:36:39;98164.19;;;7.53;81.15
66880;BME280;53789;51.392;10.234;2023-04-21T00:36:59;98159.00;;;7.51;81.25
66880;BME280;53789;51.392;10.234;2023-04-21T00:37:19;98160.59;;;7.52;80.51
66880;BME280;53789;51.392;10.234;2023-04-21T00:37:39;98161.72;;;7.51;81.81
66880;BME280;53789;51.392;10.234;2023-04-21T00:38:00;98167.19;;;7.51;81.15
66880;BME280;53789;51.392;10.234;2023-04-21T00:38:20;98161.72;;;7.51;81.35
66880;BME280;53789;51.392;10.234;2023-04-21T00:38:40;98160.09;;;7.50;80.22
66880;BME280;53789;51.392;10.234;2023-04-21T00:39:01;98163.91;;;7.49;80.09
66880;BME280;53789;51.392;10.234;2023-04-21T00:39:21;98158.44;;;7.49;81.48
66880;BME280;53789;51.392;10.234;2023-04-21T00:39:41;98162.28;;;7.48;80.90
66880;BME280;53789;51.392;10.234;2023-04-21T00:40:02;98160.38;;;7.49;80.40
66880;BME280;53789;51.392;10.234;2023-04-21T00:40:23;98156.81;;;7.48;80.89
66880;BME280;53789;51.392;10.234;2023-04-21T00:40:43;98166.66;;;7.49;80.46
66880;BME280;53789;51.392;10.234;2023-04-21T00:41:03;98156.81;;;7.48;81.10
66880;BME280;53789;51.392;10.234;2023-04-21T00:41:24;98162.28;;;7.48;80.46
66880;BME280;53789;51.392;10.234;2023-04-21T00:41:47;98166.13;;;7.47;80.24
66880;BME280;53789;51.392;10.234;2023-04-21T00:42:07;98162.56;;;7.47;81.16
66880;BME280;53789;51.392;10.234;2023-04-21T00:42:27;98160.66;;;7.47;80.98
66880;BME280;53789;51.392;10.234;2023-04-21T00:42:47;98161.75;;;7.46;80.35
66880;BME280;53789;51.392;10.234;2023-04-21T00:43:08;98160.94;;;7.46;80.46
66880;BME280;53789;51.392;10.234;2023-04-21T00:43:28;98155.78;;;7.44;80.89
66880;BME280;53789;51.392;10.234;2023-04-21T00:44:06;98155.78;;;7.44;80.77
66880;BME280;53789;51.392;10.234;2023-04-21T00:44:26;98155.78;;;7.44;80.77
66880;BME280;53789;51.392;10.234;2023-04-21T00:44:46;98161.25;;;7.44;80.61
66880;BME280;53789;51.392;10.234;2023-04-21T00:45:07;98161.25;;;7.44;79.94
66880;BME280;53789;51.392;10.234;2023-04-21T00:45:28;98158.75;;;7.42;80.45
66880;BME280;53789;51.392;10.234;2023-04-21T00:45:48;98159.84;;;7.41;81.15
66880;BME280;53789;51.392;10.234;2023-04-21T00:46:08;98160.66;;;7.42;80.44
66880;BME280;53789;51.392;10.234;2023-04-21T00:46:28;98161.78;;;7.41;80.89
66880;BME280;53789;51.392;10.234;2023-04-21T00:46:49;98160.94;;;7.40;80.55
66880;BME280;53789;51.392;10.234;2023-04-21T00:47:09;98163.69;;;7.40;80.61
66880;BME280;53789;51.392;10.234;2023-04-21T00:47:29;98158.50;;;7.39;81.76
66880;BME280;53789;51.392;10.234;2023-04-21T00:47:50;98161.25;;;7.39;81.90
66880;BME280;53789;51.392;10.234;2023-04-21T00:48:10;98165.06;;;7.38;81.36
66880;BME280;53789;51.392;10.234;2023-04-21T00:48:30;98161.53;;;7.37;81.36
66880;BME280;53789;51.392;10.234;2023-04-21T00:48:51;98162.09;;;7.34;81.30
66880;BME280;53789;51.392;10.234;2023-04-21T00:49:12;98159.09;;;7.36;81.77
66880;BME280;53789;51.392;10.234;2023-04-21T00:49:32;98159.38;;;7.34;80.87
66880;BME280;53789;51.392;10.234;2023-04-21T00:49:53;98154.19;;;7.33;81.13
66880;BME280;53789;51.392;10.234;2023-04-21T00:50:13;98158.84;;;7.32;80.50
66880;BME280;53789;51.392;10.234;2023-04-21T00:50:34;98164.31;;;7.32;81.83
66880;BME280;53789;51.392;10.234;2023-04-21T00:50:54;98158.84;;;7.32;81.59
66880;BME280;53789;51.392;10.234;2023-04-21T00:51:14;98167.34;;;7.31;81.43
66880;BME280;53789;51.392;10.234;2023-04-21T00:51:36;98159.16;;;7.31;81.12
66880;BME280;53789;51.392;10.234;2023-04-21T00:51:57;98158.03;;;7.32;80.66
66880;BME280;53789;51.392;10.234;2023-04-21T00:52:18;98158.03;;;7.32;81.77
66880;BME280;53789;51.392;10.234;2023-04-21T00:52:39;98165.41;;;7.31;82.05
66880;BME280;53789;51.392;10.234;2023-04-21T00:53:00;98163.78;;;7.30;81.31
66880;BME280;53789;51.392;10.234;2023-04-21T00:53:21;98164.63;;;7.31;81.56
66880;BME280;53789;51.392;10.234;2023-04-21T00:53:42;98164.06;;;7.29;81.71
66880;BME280;53789;51.392;10.234;2023-04-21T00:54:05;98166.81;;;7.29;82.01
66880;BME280;53789;51.392;10.234;2023-04-21T00:54:26;98170.66;;;7.27;82.01
66880;BME280;53789;51.392;10.234;2023-04-21T00:54:46;98159.97;;;7.26;81.35
66880;BME280;53789;51.392;10.234;2023-04-21T00:55:07;98167.09;;;7.27;81.61
66880;BME280;53789;51.392;10.234;2023-04-21T00:55:29;98168.19;;;7.26;81.81
66880;BME280;53789;51.392;10.234;2023-04-21T00:55:50;98163.00;;;7.24;82.75
66880;BME280;53789;51.392;10.234;2023-04-21T00:56:10;98164.13;;;7.23;81.43
66880;BME280;53789;51.392;10.234;2023-04-21T00:56:32;98164.63;;;7.25;81.62
66880;BME280;53789;51.392;10.234;2023-04-21T00:56:54;98166.84;;;7.23;81.28
66880;BME280;53789;51.392;10.234;2023-04-21T00:57:15;98165.22;;;7.22;82.08
66880;BME280;53789;51.392;10.234;2023-04-21T00:57:36;98162.75;;;7.21;81.94
66880;BME280;53789;51.392;10.234;2023-04-21T00:57:56;98170.97;;;7.21;81.65
66880;BME280;53789;51.392;10.234;2023-04-21T00:58:17;98161.13;;;7.20;81.38
66880;BME280;53789;51.392;10.234;2023-04-21T00:58:41;98159.50;;;7.19;81.46
66880;BME280;53789;51.392;10.234;2023-04-21T00:59:02;98158.69;;;7.18;82.31
66880;BME280;53789;51.392;10.234;2023-04-21T00:59:22;98160.59;;;7.18;81.77
66880;BME280;53789;51.392;10.234;2023-04-21T00:59:43;98161.69;;;7.17;82.68
66880;BME280;53789;51.392;10.234;2023-04-21T01:00:04;98157.34;;;7.16;82.61
66880;BME280;53789;51.392;10.234;2023-04-21T01:00:25;98167.75;;;7.14;82.43
66880;BME280;53789;51.392;10.234;2023-04-21T01:00:45;98163.91;;;7.15;82.43
66880;BME280;53789;51.392;10.234;2023-04-21T01:01:06;98164.22;;;7.13;81.92
66880;BME280;53789;51.392;10.234;2023-04-21T01:01:31;98163.09;;;7.14;82.91
66880;BME280;53789;51.392;10.234;2023-04-21T01:01:51;98159.81;;;7.12;81.55
66880;BME280;53789;51.392;10.234;2023-04-21T01:02:16;98168.03;;;7.12;81.81
66880;BME280;53789;51.392;10.234;2023-04-21T01:02:38;98160.63;;;7.13;82.63
66880;BME280;53789;51.392;10.234;2023-04-21T01:03:00;98160.91;;;7.11;82.79
66880;BME280;53789;51.392;10.234;2023-04-21T01:03:20;98164.50;;;7.12;82.48
66880;BME280;53789;51.392;10.234;2023-04-21T01:03:41;98163.66;;;7.11;82.08
66880;BME280;53789;51.392;10.234;2023-04-21T01:04:03;98158.19;;;7.11;81.46
66880;BME280;53789;51.392;10.234;2023-04-21T01:04:23;98162.56;;;7.12;82.19
66880;BME280;53789;51.392;10.234;2023-04-21T01:04:44;98162.84;;;7.11;82.07
66880;BME280;53789;51.392;10.234;2023-04-21T01:05:04;98160.91;;;7.11;81.59
66880;BME280;53789;51.392;10.234;2023-04-21T01:05:25;98163.66;;;7.11;81.02
66880;BME280;53789;51.392;10.234;2023-04-21T01:05:45;98162.34;;;7.08;81.11
66880;BME280;53789;51.392;10.234;2023-04-21T01:06:06;98163.44;;;7.07;80.92
66880;BME280;53789;51.392;10.234;2023-04-21T01:06:31;98164.22;;;7.08;81.07
66880;BME280;53789;51.392;10.234;2023-04-21T01:06:52;98157.94;;;7.07;81.63
66880;BME280;53789;51.392;10.234;2023-04-21T01:07:12;98159.59;;;7.08;80.65
66880;BME280;53789;51.392;10.234;2023-04-21T01:07:32;98160.41;;;7.09;81.39
66880;BME280;53789;51.392;10.234;2023-04-21T01:07:53;98165.06;;;7.08;80.26
66880;BME280;53789;51.392;10.234;2023-04-21T01:08:14;98165.34;;;7.07;80.99
66880;BME280;53789;51.392;10.234;2023-04-21T01:08:34;98166.44;;;7.06;81.57
66880;BME280;53789;51.392;10.234;2023-04-21T01:08:55;98165.63;;;7.05;80.89
66880;BME280;53789;51.392;10.234;2023-04-21T01:09:16;98165.63;;;7.05;81.58
66880;BME280;53789;51.392;10.234;2023-04-21T01:09:37;98159.34;;;7.05;80.86
66880;BME280;53789;51.392;10.234;2023-04-21T01:09:57;98162.34;;;7.03;80.67
66880;BME280;53789;51.392;10.234;2023-04-21T01:10:17;98169.47;;;7.04;81.38
66880;BME280;53789;51.392;10.234;2023-04-21T01:10:38;98162.34;;;7.03;81.11
66880;BME280;53789;51.392;10.234;2023-04-21T01:10:58;98165.94;;;7.04;81.02
66880;BME280;53789;51.392;10.234;2023-04-21T01:11:19;98167.00;;;7.03;81.01
66880;BME280;53789;51.392;10.234;2023-04-21T01:11:39;98169.75;;;7.03;82.28
66880;BME280;53789;51.392;10.234;2023-04-21T01:12:05;98162.34;;;7.03;81.96
66880;BME280;53789;51.392;10.234;2023-04-21T01:12:25;98158.81;;;7.03;81.40
66880;BME280;53789;51.392;10.234;2023-04-21T01:12:46;98164.28;;;7.03;81.74
66880;BME280;53789;51.392;10.234;2023-04-21T01:13:07;98166.47;;;7.01;82.36
66880;BME280;53789;51.392;10.234;2023-04-21T01:13:27;98166.47;;;7.01;82.02
66880;BME280;53789;51.392;10.234;2023-04-21T01:13:51;98163.72;;;7.01;82.17
66880;BME280;53789;51.392;10.234;2023-04-21T01:14:11;98163.72;;;7.01;81.77
66880;BME280;53789;51.392;10.234;2023-04-21T01:14:33;98169.19;;;7.01;82.36
66880;BME280;53789;51.392;10.234;2023-04-21T01:14:53;98160.47;;;6.99;81.93
66880;BME280;53789;51.392;10.234;2023-04-21T01:15:15;98164.31;;;6.98;82.36
66880;BME280;53789;51.392;10.234;2023-04-21T01:15:36;98167.03;;;6.98;83.00
66880;BME280;53789;51.392;10.234;2023-04-21T01:15:56;98163.50;;;6.97;82.10
66880;BME280;53789;51.392;10.234;2023-04-21T01:16:17;98165.44;;;6.97;82.23
66880;BME280;53789;51.392;10.234;2023-04-21T01:16:37;98162.69;;;6.97;82.53
66880;BME280;53789;51.392;10.234;2023-04-21T01:16:58;98164.59;;;6.96;82.42
66880;BME280;53789;51.392;10.234;2023-04-21T01:17:18;98163.78;;;6.96;82.77
66880;BME280;53789;51.392;10.234;2023-04-21T01:17:38;98166.50;;;6.96;82.64
66880;BME280;53789;51.392;10.234;2023-04-21T01:17:59;98166.50;;;6.96;82.99
66880;BME280;53789;51.392;10.234;2023-04-21T01:18:19;98164.06;;;6.94;82.11
66880;BME280;53789;51.392;10.234;2023-04-21T01:18:39;98162.13;;;6.95;82.20
66880;BME280;53789;51.392;10.234;2023-04-21T01:19:00;98157.78;;;6.94;82.60
66880;BME280;53789;51.392;10.234;2023-04-21T01:19:21;98164.06;;;6.94;82.23
66880;BME280;53789;51.392;10.234;2023-04-21T01:19:41;98168.72;;;6.94;82.32
66880;BME280;53789;51.392;10.234;2023-04-21T01:20:05;98163.56;;;6.92;82.20
66880;BME280;53789;51.392;10.234;2023-04-21T01:20:26;98164.34;;;6.93;82.96
66880;BME280;53789;51.392;10.234;2023-04-21T01:20:46;98166.28;;;6.92;82.36
66880;BME280;53789;51.392;10.234;2023-04-21T01:21:07;98163.84;;;6.90;82.20
66880;BME280;53789;51.392;10.234;2023-04-21T01:21:27;98163.84;;;6.90;83.00
66880;BME280;53789;51.392;10.234;2023-04-21T01:21:48;98162.19;;;6.89;83.00
66880;BME280;53789;51.392;10.234;2023-04-21T01:22:09;98166.00;;;6.88;82.83
66880;BME280;53789;51.392;10.234;2023-04-21T01:22:30;98161.63;;;6.87;82.51
66880;BME280;53789;51.392;10.234;2023-04-21T01:22:51;98165.22;;;6.88;82.69
66880;BME280;53789;51.392;10.234;2023-04-21T01:23:11;98162.47;;;6.88;82.54
66880;BME280;53789;51.392;10.234;2023-04-21T01:23:31;98164.38;;;6.87;82.62
66880;BME280;53789;51.392;10.234;2023-04-21T01:23:52;98164.38;;;6.87;82.42
66880;BME280;53789;51.392;10.234;2023-04-21T01:24:12;98163.84;;;6.85;82.65
66880;BME280;53789;51.392;10.234;2023-04-21T01:24:40;98161.13;;;6.85;82.56
66880;BME280;53789;51.392;10.234;2023-04-21T01:25:00;98170.13;;;6.86;82.58
66880;BME280;53789;51.392;10.234;2023-04-21T01:25:20;98166.59;;;6.85;82.75
66880;BME280;53789;51.392;10.234;2023-04-21T01:25:41;98164.13;;;6.84;82.67
66880;BME280;53789;51.392;10.234;2023-04-21T01:26:01;98163.34;;;6.83;82.53
66880;BME280;53789;51.392;10.234;2023-04-21T01:26:21;98170.41;;;6.84;82.95
66880;BME280;53789;51.392;10.234;2023-04-21T01:26:42;98166.06;;;6.83;82.50
66880;BME280;53789;51.392;10.234;2023-04-21T01:27:02;98166.06;;;6.83;82.87
66880;BME280;53789;51.392;10.234;2023-04-21T01:27:23;98159.75;;;6.83;82.85
66880;BME280;53789;51.392;10.234;2023-04-21T01:27:43;98159.75;;;6.83;82.57
66880;BME280;53789;51.392;10.234;2023-04-21T01:28:03;98169.59;;;6.84;83.35
66880;BME280;53789;51.392;10.234;2023-04-21T01:28:25;98161.41;;;6.84;83.09
66880;BME280;53789;51.392;10.234;2023-04-21T01:28:45;98171.81;;;6.82;83.09
66880;BME280;53789;51.392;10.234;2023-04-21T01:29:06;98166.34;;;6.82;83.21
66880;BME280;53789;51.392;10.234;2023-04-21T01:29:26;98166.34;;;6.82;83.57
66880;BME280;53789;51.392;10.234;2023-04-21T01:29:49;98167.97;;;6.83;82.80
66880;BME280;53789;51.392;10.234;2023-04-21T01:30:10;98173.72;;;6.81;83.48
66880;BME280;53789;51.392;10.234;2023-04-21T01:30:30;98165.50;;;6.81;83.51
66880;BME280;53789;51.392;10.234;2023-04-21T01:30:51;98165.00;;;6.79;83.20
66880;BME280;53789;51.392;10.234;2023-04-21T01:31:11;98166.09;;;6.78;83.49
66880;BME280;53789;51.392;10.234;2023-04-21T01:31:31;98164.44;;;6.77;83.05
66880;BME280;53789;51.392;10.234;2023-04-21T01:31:52;98169.09;;;6.77;83.58
66880;BME280;53789;51.392;10.234;2023-04-21T01:32:18;98163.13;;;6.74;83.38
66880;BME280;53789;51.392;10.234;2023-04-21T01:32:38;98161.19;;;6.75;83.93
66880;BME280;53789;51.392;10.234;2023-04-21T01:32:59;98170.47;;;6.74;83.97
66880;BME280;53789;51.392;10.234;2023-04-21T01:33:20;98165.00;;;6.74;83.63
66880;BME280;53789;51.392;10.234;2023-04-21T01:33:40;98169.66;;;6.73;84.47
66880;BME280;53789;51.392;10.234;2023-04-21T01:34:04;98163.41;;;6.73;83.95
66880;BME280;53789;51.392;10.234;2023-04-21T01:34:24;98168.03;;;6.72;84.06
66880;BME280;53789;51.392;10.234;2023-04-21T01:34:45;98160.94;;;6.71;84.33
66880;BME280;53789;51.392;10.234;2023-04-21T01:35:06;98160.94;;;6.71;83.97
66880;BME280;53789;51.392;10.234;2023-04-21T01:35:26;98159.59;;;6.69;83.96
66880;BME280;53789;51.392;10.234;2023-04-21T01:35:47;98166.69;;;6.70;83.83
66880;BME280;53789;51.392;10.234;2023-04-21T01:36:08;98165.56;;;6.71;84.48
66880;BME280;53789;51.392;10.234;2023-04-21T01:36:29;98159.59;;;6.69;84.73
66880;BME280;53789;51.392;10.234;2023-04-21T01:36:49;98163.41;;;6.68;84.76
66880;BME280;53789;51.392;10.234;2023-04-21T01:37:12;98162.31;;;6.69;84.04
66880;BME280;53789;51.392;10.234;2023-04-21T01:37:33;98168.59;;;6.69;84.66
66880;BME280;53789;51.392;10.234;2023-04-21T01:37:53;98168.88;;;6.68;84.02
66880;BME280;53789;51.392;10.234;2023-04-21T01:38:14;98160.69;;;6.68;83.87
66880;BME280;53789;51.392;10.234;2023-04-21T01:38:39;98166.16;;;6.68;84.38
66880;BME280;53789;51.392;10.234;2023-04-21T01:39:00;98168.88;;;6.68;84.26
66880;BME280;53789;51.392;10.234;2023-04-21T01:39:20;98166.16;;;6.68;84.16
66880;BME280;53789;51.392;10.234;2023-04-21T01:39:43;98166.97;;;6.68;84.33
66880;BME280;53789;51.392;10.234;2023-04-21T01:40:07;98165.34;;;6.67;84.76
66880;BME280;53789;51.392;10.234;2023-04-21T01:40:27;98159.59;;;6.69;84.52
66880;BME280;53789;51.392;10.234;2023-04-21T01:40:51;98159.06;;;6.67;84.75
66880;BME280;53789;51.392;10.234;2023-04-21T01:41:12;98160.69;;;6.68;84.55
66880;BME280;53789;51.392;10.234;2023-04-21T01:41:32;98164.53;;;6.67;84.52
66880;BME280;53789;51.392;10.234;2023-04-21T01:41:54;98161.81;;;6.67;84.27
66880;BME280;53789;51.392;10.234;2023-04-21T01:42:15;98167.28;;;6.67;84.09
66880;BME280;53789;51.392;10.234;2023-04-21T01:42:37;98165.34;;;6.67;84.70
66880;BME280;53789;51.392;10.234;2023-04-21T01:42:58;98160.97;;;6.66;84.28
66880;BME280;53789;51.392;10.234;2023-04-21T01:43:21;98160.16;;;6.66;85.03
66880;BME280;53789;51.392;10.234;2023-04-21T01:43:41;98160.16;;;6.66;84.21
66880;BME280;53789;51.392;10.234;2023-04-21T01:44:02;98153.84;;;6.65;84.68
66880;BME280;53789;51.392;10.234;2023-04-21T01:44:24;98160.16;;;6.66;84.42
66880;BME280;53789;51.392;10.234;2023-04-21T01:44:44;98160.16;;;6.66;84.13
66880;BME280;53789;51.392;10.234;2023-04-21T01:45:05;98168.06;;;6.67;84.10
66880;BME280;53789;51.392;10.234;2023-04-21T01:45:26;98160.97;;;6.66;84.63
66880;BME280;53789;51.392;10.234;2023-04-21T01:45:47;98164.53;;;6.67;84.77
66880;BME280;53789;51.392;10.234;2023-04-21T01:46:07;98168.88;;;6.68;84.52
66880;BME280;53789;51.392;10.234;2023-04-21T01:46:27;98160.69;;;6.68;84.54
66880;BME280;53789;51.392;10.234;2023-04-21T01:46:48;98167.78;;;6.69;84.50
66880;BME280;53789;51.392;10.234;2023-04-21T01:47:08;98160.69;;;6.68;84.79
66880;BME280;53789;51.392;10.234;2023-04-21T01:47:29;98162.31;;;6.69;84.33
66880;BME280;53789;51.392;10.234;2023-04-21T01:47:49;98167.78;;;6.69;84.71
66880;BME280;53789;51.392;10.234;2023-04-21T01:48:09;98163.13;;;6.69;84.88
66880;BME280;53789;51.392;10.234;2023-04-21T01:48:30;98165.56;;;6.71;84.93
66880;BME280;53789;51.392;10.234;2023-04-21T01:48:50;98166.69;;;6.70;84.56
66880;BME280;53789;51.392;10.234;2023-04-21T01:49:10;98166.69;;;6.70;84.85
66880;BME280;53789;51.392;10.234;2023-04-21T01:49:31;98171.03;;;6.71;84.48
66880;BME280;53789;51.392;10.234;2023-04-21T01:49:51;98165.56;;;6.71;85.18
66880;BME280;53789;51.392;10.234;2023-04-21T01:50:12;98161.75;;;6.72;84.43